METAR AND TAF INFORMATION
METAR FOR HECA
ADDS - METARS form results

(0624 UTC 28 May 2020)
Data provider http://aviationweather.gov/metar/data/
 
METAR text: HECA 280600Z 36011KT 9999 SCT025 21/14 Q1018 NOSIG
Conditions at: HECA (CAIRO INTL AIRPO, EG) observed 0600 UTC 28 May 2020
Temperature: 21.0°C (70°F)
Dewpoint: 14.0°C (57°F) [RH = 64%]
Pressure (altimeter): 30.06 inches Hg (1018.0 mb)
Winds: from the N (360 degrees) at 13 MPH (11 knots; 5.7 m/s)
Visibility: 6 or more miles (10+ km)
Ceiling: at least 12,000 feet AGL
Clouds: scattered clouds at 2500 feet AGL
Weather: no significant weather observed at this time

METAR text: HECA 280530Z 35010KT 9999 SCT025 20/14 Q1018 NOSIG
Conditions at: HECA (CAIRO INTL AIRPO, EG) observed 0530 UTC 28 May 2020
Temperature: 20.0°C (68°F)
Dewpoint: 14.0°C (57°F) [RH = 68%]
Pressure (altimeter): 30.06 inches Hg (1018.0 mb)
Winds: from the N (350 degrees) at 12 MPH (10 knots; 5.1 m/s)
Visibility: 6 or more miles (10+ km)
Ceiling: at least 12,000 feet AGL
Clouds: scattered clouds at 2500 feet AGL
Weather: no significant weather observed at this time

Forecast for: HECA (CAIRO INTL AIRPO, EG)
Text: TAF HECA 280500Z 2806/2912 36009KT 9999 SCT025
Forecast period: 0600 UTC 28 May 2020 to 1200 UTC 29 May 2020
Forecast type: FROM: standard forecast or significant change
Winds: from the N (360 degrees) at 10 MPH (9 knots; 4.6 m/s)
Visibility: 6 or more miles 10+ km)
Ceiling: at least 12,000 feet AGL
Clouds: scattered clouds at 2500 feet AGL
Weather: no significant weather forecast for this period

 AIRPORT MAP

 RUNWAY INFORMATION
Runway 05C Runway length 13120 ft Runway width 197 ft
Runway elevation 382 ft Runway displaced threshold 0 ft Runway heading 45
Runway 23C Runway length 13120 ft Runway width 197 ft
Runway elevation 0 ft Runway displaced threshold 0 ft Runway heading 225
Runway 05L Runway length 10830 ft Runway width 197 ft
Runway elevation 190 ft Runway displaced threshold 0 ft Runway heading 49
Runway 23R Runway length 10830 ft Runway width 197 ft
Runway elevation 199 ft Runway displaced threshold 0 ft Runway heading 229
Runway 05R Runway length 13124 ft Runway width 197 ft
Runway elevation 382 ft Runway displaced threshold 0 ft Runway heading 49
Runway 23L Runway length 13124 ft Runway width 197 ft
Runway elevation 375 ft Runway displaced threshold 0 ft Runway heading 229

 AIRPORT FREQUENCIES
Type APP Name APP Frequency 119.05 MHZ
Type ATIS Name ATIS Frequency 122.6 MHZ
Type GND Name GND Frequency 121.9 MHZ
Type MISC Name VOLMET Frequency 126.2 MHZ
Type PFLT Name PREFLIGHT Frequency 120.1 MHZ
Type rdo Name cairo radi Frequency 11.3 MHZ
Type TWR Name TWR Frequency 118.1 MHZ
Type Volmet Name Frequency 124.6 MHZ

 AIRPORT NEAR NAVIGATION AIDS
Type NDB Name Cairo Frequency 310 KHZ
Type VOR-DME Name Cairo Frequency 112500 KHZ
Type VOR-DME Name Cairo Frequency 115200 KHZ
Type NDB Name Cairo Frequency 317 KHZ



Powered by Virtual Airlines Manager [v2.6.2]